Kenneth Carl — WDF8246 — position and weather

sailwx.info

Track history (hours):
 
Tides and Currents Weather Stations Pressure Air Temp Water Temp Dewpoint Dewpoint Depression Visibility Wind Speed Wind Dir Waves Ship Positions

Kenneth Carl

Owner: So. Cal. Ship Services, Inc., San Pedro, CA. More information available from US FCC via Universal Licensing System and Coast Guard Vessel Documentation Center.

Last reported at 2017-Jan-20 17:05 UTC. Time now 2017-Jan-25 01:30 UTC.
Position N 33°35' W 118°08'.

Length 31 m; draft 3 m.

Type: Ship. MMSI: 367492920.

Date/timePositionNaut miles runAvg speedWind from/ knotsBaromVisibWave heightAir tempDewpointWater temp
2017-Jan-20 17:05N 33°35' W 118°08'0 0.0
2017-Jan-20 16:32N 33°35' W 118°08'0 0.0
2017-Jan-18 22:14N 33°35' W 118°08'12 1.0
2017-Jan-18 11:08N 33°44' W 118°16'0 0.0
2017-Jan-18 09:08N 33°44' W 118°16'0 0.0
2017-Jan-18 04:26N 33°44' W 118°16'0 0.0
2017-Jan-18 03:26N 33°44' W 118°16'0 0.0
2017-Jan-18 00:32N 33°44' W 118°16'0 0.0
2017-Jan-17 23:32N 33°44' W 118°16'0 0.0
2017-Jan-17 22:32N 33°44' W 118°16'0 0.0
2017-Jan-17 21:32N 33°44' W 118°16'0 0.0
2017-Jan-17 20:32N 33°44' W 118°16'0 0.0
2017-Jan-17 19:32N 33°44' W 118°16'0 0.0
2017-Jan-17 18:32N 33°44' W 118°16'0 0.0
2017-Jan-17 17:08N 33°44' W 118°16'0 0.0
2017-Jan-17 15:32N 33°44' W 118°16'0 0.0
2017-Jan-17 14:32N 33°44' W 118°16'0 0.0
2017-Jan-17 13:32N 33°44' W 118°16'0 0.0
2017-Jan-17 12:32N 33°44' W 118°16'0 0.0
2017-Jan-17 11:20N 33°44' W 118°16'0 0.0
2017-Jan-17 10:29N 33°44' W 118°16'0 0.0
2017-Jan-17 09:32N 33°44' W 118°16'0 0.0
2017-Jan-17 07:32N 33°44' W 118°16'0 0.0
2017-Jan-17 01:30N 33°44' W 118°16'9 9.0
2017-Jan-17 00:33N 33°37' W 118°10'3 3.0
2017-Jan-16 23:33N 33°35' W 118°08'0 0.0
2017-Jan-16 22:31N 33°35' W 118°08'1 1.1
2017-Jan-16 21:23N 33°34' W 118°07'13 0.4
2017-Jan-15 09:32N 33°44' W 118°16'0 0.0
2017-Jan-15 08:32N 33°44' W 118°16'0 0.0
2017-Jan-15 07:32N 33°44' W 118°16'0 0.0
2017-Jan-15 06:20N 33°44' W 118°16'0 0.0
2017-Jan-15 05:32N 33°44' W 118°16'0 0.0
2017-Jan-15 04:23N 33°44' W 118°16'0 0.0
2017-Jan-15 03:14N 33°44' W 118°16'0 0.0
2017-Jan-15 02:05N 33°44' W 118°16'0 0.0
2017-Jan-15 01:29N 33°44' W 118°16'0 0.0
2017-Jan-15 00:32N 33°44' W 118°16'0 0.0
2017-Jan-14 22:26N 33°44' W 118°16'0 0.0
2017-Jan-14 21:32N 33°44' W 118°16'  
2017-Jan-11 20:33N 33°35' W 118°08'  
Track history (hours):
 
Tides and Currents Weather Stations Pressure Air Temp Water Temp Dewpoint Dewpoint Depression Visibility Wind Speed Wind Dir Waves Ship Positions

Kenneth Carl

Owner: So. Cal. Ship Services, Inc., San Pedro, CA. More information available from US FCC via Universal Licensing System and Coast Guard Vessel Documentation Center.

Last reported at 2017-Jan-20 17:05 UTC. Time now 2017-Jan-25 01:30 UTC.
Position N 33°35' W 118°08'.

Length 31 m; draft 3 m.

Type: Ship. MMSI: 367492920.

Date/timePositionNaut miles runAvg speedWind from/ knotsBaromVisibWave heightAir tempDewpointWater temp
2017-Jan-20 17:05N 33°35' W 118°08'0 0.0
2017-Jan-20 16:32N 33°35' W 118°08'0 0.0
2017-Jan-18 22:14N 33°35' W 118°08'12 1.0
2017-Jan-18 11:08N 33°44' W 118°16'0 0.0
2017-Jan-18 09:08N 33°44' W 118°16'0 0.0
2017-Jan-18 04:26N 33°44' W 118°16'0 0.0
2017-Jan-18 03:26N 33°44' W 118°16'0 0.0
2017-Jan-18 00:32N 33°44' W 118°16'0 0.0
2017-Jan-17 23:32N 33°44' W 118°16'0 0.0
2017-Jan-17 22:32N 33°44' W 118°16'0 0.0
2017-Jan-17 21:32N 33°44' W 118°16'0 0.0
2017-Jan-17 20:32N 33°44' W 118°16'0 0.0
2017-Jan-17 19:32N 33°44' W 118°16'0 0.0
2017-Jan-17 18:32N 33°44' W 118°16'0 0.0
2017-Jan-17 17:08N 33°44' W 118°16'0 0.0
2017-Jan-17 15:32N 33°44' W 118°16'0 0.0
2017-Jan-17 14:32N 33°44' W 118°16'0 0.0
2017-Jan-17 13:32N 33°44' W 118°16'0 0.0
2017-Jan-17 12:32N 33°44' W 118°16'0 0.0
2017-Jan-17 11:20N 33°44' W 118°16'0 0.0
2017-Jan-17 10:29N 33°44' W 118°16'0 0.0
2017-Jan-17 09:32N 33°44' W 118°16'0 0.0
2017-Jan-17 07:32N 33°44' W 118°16'0 0.0
2017-Jan-17 01:30N 33°44' W 118°16'9 9.0
2017-Jan-17 00:33N 33°37' W 118°10'3 3.0
2017-Jan-16 23:33N 33°35' W 118°08'0 0.0
2017-Jan-16 22:31N 33°35' W 118°08'1 1.1
2017-Jan-16 21:23N 33°34' W 118°07'13 0.4
2017-Jan-15 09:32N 33°44' W 118°16'0 0.0
2017-Jan-15 08:32N 33°44' W 118°16'0 0.0
2017-Jan-15 07:32N 33°44' W 118°16'0 0.0
2017-Jan-15 06:20N 33°44' W 118°16'0 0.0
2017-Jan-15 05:32N 33°44' W 118°16'0 0.0
2017-Jan-15 04:23N 33°44' W 118°16'0 0.0
2017-Jan-15 03:14N 33°44' W 118°16'0 0.0
2017-Jan-15 02:05N 33°44' W 118°16'0 0.0
2017-Jan-15 01:29N 33°44' W 118°16'0 0.0
2017-Jan-15 00:32N 33°44' W 118°16'0 0.0
2017-Jan-14 22:26N 33°44' W 118°16'0 0.0
2017-Jan-14 21:32N 33°44' W 118°16'  
2017-Jan-11 20:33N 33°35' W 118°08'  

Dump ship's entire track history